sensor_id;sensor_type;location;lat;lon;timestamp;P1;durP1;ratioP1;P2;durP2;ratioP2
66342;SDS011;53144;51.524;5.080;2023-06-26T00:02:08;7.93;;;7.13;;
66342;SDS011;53144;51.524;5.080;2023-06-26T00:04:34;8.00;;;7.03;;
66342;SDS011;53144;51.524;5.080;2023-06-26T00:07:00;8.40;;;6.65;;
66342;SDS011;53144;51.524;5.080;2023-06-26T00:09:26;7.13;;;6.43;;
66342;SDS011;53144;51.524;5.080;2023-06-26T00:11:51;7.35;;;6.63;;
66342;SDS011;53144;51.524;5.080;2023-06-26T00:14:17;9.70;;;7.10;;
66342;SDS011;53144;51.524;5.080;2023-06-26T00:16:45;11.00;;;6.95;;
66342;SDS011;53144;51.524;5.080;2023-06-26T00:19:17;11.45;;;7.10;;
66342;SDS011;53144;51.524;5.080;2023-06-26T00:21:42;7.93;;;7.13;;
66342;SDS011;53144;51.524;5.080;2023-06-26T00:24:14;10.60;;;7.13;;
66342;SDS011;53144;51.524;5.080;2023-06-26T00:26:40;10.75;;;7.47;;
66342;SDS011;53144;51.524;5.080;2023-06-26T00:29:05;8.10;;;6.88;;
66342;SDS011;53144;51.524;5.080;2023-06-26T00:31:30;9.52;;;7.28;;
66342;SDS011;53144;51.524;5.080;2023-06-26T00:33:56;10.82;;;7.70;;
66342;SDS011;53144;51.524;5.080;2023-06-26T00:36:21;10.10;;;7.38;;
66342;SDS011;53144;51.524;5.080;2023-06-26T00:38:49;10.82;;;7.28;;
66342;SDS011;53144;51.524;5.080;2023-06-26T00:41:14;9.35;;;6.97;;
66342;SDS011;53144;51.524;5.080;2023-06-26T00:43:40;7.90;;;6.75;;
66342;SDS011;53144;51.524;5.080;2023-06-26T00:46:07;8.57;;;6.90;;
66342;SDS011;53144;51.524;5.080;2023-06-26T00:48:34;7.82;;;6.80;;
66342;SDS011;53144;51.524;5.080;2023-06-26T00:50:59;10.00;;;6.70;;
66342;SDS011;53144;51.524;5.080;2023-06-26T00:53:25;7.30;;;6.07;;
66342;SDS011;53144;51.524;5.080;2023-06-26T00:55:50;7.40;;;5.72;;
66342;SDS011;53144;51.524;5.080;2023-06-26T00:58:15;10.00;;;5.38;;
66342;SDS011;53144;51.524;5.080;2023-06-26T01:00:41;9.27;;;5.68;;
66342;SDS011;53144;51.524;5.080;2023-06-26T01:03:08;6.85;;;5.03;;
66342;SDS011;53144;51.524;5.080;2023-06-26T01:05:33;6.63;;;5.70;;
66342;SDS011;53144;51.524;5.080;2023-06-26T01:07:58;7.78;;;5.30;;
66342;SDS011;53144;51.524;5.080;2023-06-26T01:10:24;13.07;;;5.75;;
66342;SDS011;53144;51.524;5.080;2023-06-26T01:12:52;7.93;;;5.50;;
66342;SDS011;53144;51.524;5.080;2023-06-26T01:15:18;7.70;;;5.50;;
66342;SDS011;53144;51.524;5.080;2023-06-26T01:17:44;8.20;;;5.20;;
66342;SDS011;53144;51.524;5.080;2023-06-26T01:20:10;8.48;;;5.70;;
66342;SDS011;53144;51.524;5.080;2023-06-26T01:22:38;6.93;;;4.90;;
66342;SDS011;53144;51.524;5.080;2023-06-26T01:25:31;6.85;;;5.57;;
66342;SDS011;53144;51.524;5.080;2023-06-26T01:28:03;7.82;;;5.80;;
66342;SDS011;53144;51.524;5.080;2023-06-26T01:30:30;7.28;;;5.35;;
66342;SDS011;53144;51.524;5.080;2023-06-26T01:32:57;10.05;;;5.50;;
66342;SDS011;53144;51.524;5.080;2023-06-26T01:35:24;8.07;;;5.53;;
66342;SDS011;53144;51.524;5.080;2023-06-26T01:37:50;8.90;;;5.32;;
66342;SDS011;53144;51.524;5.080;2023-06-26T01:40:15;7.80;;;5.70;;
66342;SDS011;53144;51.524;5.080;2023-06-26T01:42:41;13.80;;;5.60;;
66342;SDS011;53144;51.524;5.080;2023-06-26T01:45:21;9.52;;;5.28;;
66342;SDS011;53144;51.524;5.080;2023-06-26T01:47:51;7.90;;;5.65;;
66342;SDS011;53144;51.524;5.080;2023-06-26T01:50:25;8.82;;;5.40;;
66342;SDS011;53144;51.524;5.080;2023-06-26T01:53:10;8.50;;;5.40;;
66342;SDS011;53144;51.524;5.080;2023-06-26T01:58:11;7.13;;;5.07;;
66342;SDS011;53144;51.524;5.080;2023-06-26T02:00:39;6.70;;;4.70;;
66342;SDS011;53144;51.524;5.080;2023-06-26T02:03:05;8.18;;;4.65;;
66342;SDS011;53144;51.524;5.080;2023-06-26T02:05:31;8.48;;;4.65;;
66342;SDS011;53144;51.524;5.080;2023-06-26T02:07:57;7.43;;;4.63;;
66342;SDS011;53144;51.524;5.080;2023-06-26T02:10:23;7.28;;;4.50;;
66342;SDS011;53144;51.524;5.080;2023-06-26T02:12:48;7.07;;;4.63;;
66342;SDS011;53144;51.524;5.080;2023-06-26T02:15:13;9.73;;;4.75;;
66342;SDS011;53144;51.524;5.080;2023-06-26T02:17:39;8.40;;;4.15;;
66342;SDS011;53144;51.524;5.080;2023-06-26T02:20:04;6.00;;;4.50;;
66342;SDS011;53144;51.524;5.080;2023-06-26T02:22:31;8.30;;;4.20;;
66342;SDS011;53144;51.524;5.080;2023-06-26T02:24:56;7.97;;;4.53;;
66342;SDS011;53144;51.524;5.080;2023-06-26T02:27:22;7.25;;;4.10;;
66342;SDS011;53144;51.524;5.080;2023-06-26T02:29:47;6.47;;;4.38;;
66342;SDS011;53144;51.524;5.080;2023-06-26T02:32:12;5.03;;;3.63;;
66342;SDS011;53144;51.524;5.080;2023-06-26T02:34:38;8.27;;;3.70;;
66342;SDS011;53144;51.524;5.080;2023-06-26T02:37:03;8.07;;;4.00;;
66342;SDS011;53144;51.524;5.080;2023-06-26T02:39:31;9.18;;;4.00;;
66342;SDS011;53144;51.524;5.080;2023-06-26T02:41:57;11.73;;;3.92;;
66342;SDS011;53144;51.524;5.080;2023-06-26T02:44:22;10.68;;;3.83;;
66342;SDS011;53144;51.524;5.080;2023-06-26T02:46:47;7.95;;;4.30;;
66342;SDS011;53144;51.524;5.080;2023-06-26T02:49:13;7.78;;;4.28;;
66342;SDS011;53144;51.524;5.080;2023-06-26T02:51:38;8.60;;;4.18;;
66342;SDS011;53144;51.524;5.080;2023-06-26T02:54:04;10.13;;;4.47;;
66342;SDS011;53144;51.524;5.080;2023-06-26T02:56:29;13.98;;;4.38;;
66342;SDS011;53144;51.524;5.080;2023-06-26T02:58:55;7.15;;;4.10;;
66342;SDS011;53144;51.524;5.080;2023-06-26T03:01:21;10.80;;;4.50;;
66342;SDS011;53144;51.524;5.080;2023-06-26T03:03:46;9.68;;;5.00;;
66342;SDS011;53144;51.524;5.080;2023-06-26T03:06:12;10.38;;;4.47;;
66342;SDS011;53144;51.524;5.080;2023-06-26T03:08:38;12.50;;;4.60;;
66342;SDS011;53144;51.524;5.080;2023-06-26T03:11:04;10.48;;;4.45;;
66342;SDS011;53144;51.524;5.080;2023-06-26T03:13:30;7.30;;;4.13;;
66342;SDS011;53144;51.524;5.080;2023-06-26T03:15:56;6.95;;;4.35;;
66342;SDS011;53144;51.524;5.080;2023-06-26T03:18:22;12.30;;;5.25;;
66342;SDS011;53144;51.524;5.080;2023-06-26T03:20:47;14.73;;;4.70;;
66342;SDS011;53144;51.524;5.080;2023-06-26T03:23:13;12.77;;;5.00;;
66342;SDS011;53144;51.524;5.080;2023-06-26T03:25:38;10.40;;;4.60;;
66342;SDS011;53144;51.524;5.080;2023-06-26T03:28:04;10.75;;;4.70;;
66342;SDS011;53144;51.524;5.080;2023-06-26T03:30:29;10.88;;;4.93;;
66342;SDS011;53144;51.524;5.080;2023-06-26T03:32:54;12.38;;;5.10;;
66342;SDS011;53144;51.524;5.080;2023-06-26T03:35:20;10.23;;;4.90;;
66342;SDS011;53144;51.524;5.080;2023-06-26T03:37:45;15.68;;;5.32;;
66342;SDS011;53144;51.524;5.080;2023-06-26T03:40:10;11.70;;;5.13;;
66342;SDS011;53144;51.524;5.080;2023-06-26T03:42:36;13.80;;;5.65;;
66342;SDS011;53144;51.524;5.080;2023-06-26T03:45:01;15.57;;;5.80;;
66342;SDS011;53144;51.524;5.080;2023-06-26T03:47:27;16.77;;;5.25;;
66342;SDS011;53144;51.524;5.080;2023-06-26T03:49:52;16.35;;;6.30;;
66342;SDS011;53144;51.524;5.080;2023-06-26T03:52:18;13.55;;;5.68;;
66342;SDS011;53144;51.524;5.080;2023-06-26T03:54:43;15.55;;;5.53;;
66342;SDS011;53144;51.524;5.080;2023-06-26T03:57:09;11.50;;;5.03;;
66342;SDS011;53144;51.524;5.080;2023-06-26T03:59:35;11.43;;;5.47;;
66342;SDS011;53144;51.524;5.080;2023-06-26T04:02:01;15.20;;;5.25;;
66342;SDS011;53144;51.524;5.080;2023-06-26T04:04:26;13.57;;;5.05;;
66342;SDS011;53144;51.524;5.080;2023-06-26T04:06:52;16.65;;;5.75;;
66342;SDS011;53144;51.524;5.080;2023-06-26T04:09:17;12.52;;;5.10;;
66342;SDS011;53144;51.524;5.080;2023-06-26T04:11:44;12.38;;;5.03;;
66342;SDS011;53144;51.524;5.080;2023-06-26T04:14:09;12.63;;;5.20;;
66342;SDS011;53144;51.524;5.080;2023-06-26T04:16:35;12.27;;;5.10;;
66342;SDS011;53144;51.524;5.080;2023-06-26T04:19:00;15.18;;;5.63;;
66342;SDS011;53144;51.524;5.080;2023-06-26T04:21:27;18.95;;;5.72;;
66342;SDS011;53144;51.524;5.080;2023-06-26T04:23:52;20.60;;;6.07;;
66342;SDS011;53144;51.524;5.080;2023-06-26T04:26:18;17.48;;;6.25;;
66342;SDS011;53144;51.524;5.080;2023-06-26T04:28:43;14.13;;;5.80;;
66342;SDS011;53144;51.524;5.080;2023-06-26T04:31:08;17.55;;;5.95;;
66342;SDS011;53144;51.524;5.080;2023-06-26T04:33:35;16.83;;;5.97;;
66342;SDS011;53144;51.524;5.080;2023-06-26T04:36:02;13.85;;;5.60;;
66342;SDS011;53144;51.524;5.080;2023-06-26T04:38:28;12.48;;;5.05;;
66342;SDS011;53144;51.524;5.080;2023-06-26T04:40:54;15.52;;;5.30;;
66342;SDS011;53144;51.524;5.080;2023-06-26T04:43:20;15.52;;;5.15;;
66342;SDS011;53144;51.524;5.080;2023-06-26T04:45:45;17.45;;;5.07;;
66342;SDS011;53144;51.524;5.080;2023-06-26T04:48:11;16.25;;;5.63;;
66342;SDS011;53144;51.524;5.080;2023-06-26T04:50:36;16.90;;;4.78;;
66342;SDS011;53144;51.524;5.080;2023-06-26T04:53:01;16.58;;;5.50;;
66342;SDS011;53144;51.524;5.080;2023-06-26T04:55:27;20.73;;;5.80;;
66342;SDS011;53144;51.524;5.080;2023-06-26T04:57:53;18.23;;;5.78;;
66342;SDS011;53144;51.524;5.080;2023-06-26T05:00:18;20.48;;;5.28;;
66342;SDS011;53144;51.524;5.080;2023-06-26T05:02:44;17.90;;;5.45;;
66342;SDS011;53144;51.524;5.080;2023-06-26T05:05:10;18.67;;;4.78;;
66342;SDS011;53144;51.524;5.080;2023-06-26T05:07:36;17.27;;;5.40;;
66342;SDS011;53144;51.524;5.080;2023-06-26T05:10:03;13.23;;;4.75;;
66342;SDS011;53144;51.524;5.080;2023-06-26T05:12:29;16.38;;;5.13;;
66342;SDS011;53144;51.524;5.080;2023-06-26T05:14:54;15.73;;;4.57;;
66342;SDS011;53144;51.524;5.080;2023-06-26T05:17:19;16.42;;;4.47;;
66342;SDS011;53144;51.524;5.080;2023-06-26T05:19:45;18.85;;;4.88;;
66342;SDS011;53144;51.524;5.080;2023-06-26T05:22:10;15.23;;;4.88;;
66342;SDS011;53144;51.524;5.080;2023-06-26T05:24:38;12.45;;;4.13;;
66342;SDS011;53144;51.524;5.080;2023-06-26T05:27:04;12.43;;;4.47;;
66342;SDS011;53144;51.524;5.080;2023-06-26T05:29:30;11.95;;;4.00;;
66342;SDS011;53144;51.524;5.080;2023-06-26T05:31:57;17.35;;;3.95;;
66342;SDS011;53144;51.524;5.080;2023-06-26T05:34:23;11.65;;;3.70;;
66342;SDS011;53144;51.524;5.080;2023-06-26T05:36:52;11.35;;;3.83;;
66342;SDS011;53144;51.524;5.080;2023-06-26T05:39:22;13.88;;;3.47;;
66342;SDS011;53144;51.524;5.080;2023-06-26T05:41:48;11.98;;;3.60;;
66342;SDS011;53144;51.524;5.080;2023-06-26T05:44:13;14.05;;;3.47;;
66342;SDS011;53144;51.524;5.080;2023-06-26T05:46:39;16.83;;;4.15;;
66342;SDS011;53144;51.524;5.080;2023-06-26T05:49:04;15.23;;;3.33;;
66342;SDS011;53144;51.524;5.080;2023-06-26T05:51:29;10.68;;;3.63;;
66342;SDS011;53144;51.524;5.080;2023-06-26T05:53:55;9.40;;;2.90;;
66342;SDS011;53144;51.524;5.080;2023-06-26T05:56:21;11.45;;;3.50;;
66342;SDS011;53144;51.524;5.080;2023-06-26T05:58:47;12.05;;;2.85;;
66342;SDS011;53144;51.524;5.080;2023-06-26T06:01:13;7.63;;;2.95;;
66342;SDS011;53144;51.524;5.080;2023-06-26T06:03:39;8.00;;;3.05;;
66342;SDS011;53144;51.524;5.080;2023-06-26T06:06:04;7.97;;;2.60;;
66342;SDS011;53144;51.524;5.080;2023-06-26T06:08:30;9.48;;;3.15;;
66342;SDS011;53144;51.524;5.080;2023-06-26T06:10:55;9.48;;;3.20;;
66342;SDS011;53144;51.524;5.080;2023-06-26T06:13:21;9.80;;;3.53;;
66342;SDS011;53144;51.524;5.080;2023-06-26T06:15:46;12.00;;;3.50;;
66342;SDS011;53144;51.524;5.080;2023-06-26T06:18:12;6.80;;;2.85;;
66342;SDS011;53144;51.524;5.080;2023-06-26T06:20:37;12.05;;;2.65;;
66342;SDS011;53144;51.524;5.080;2023-06-26T06:23:02;9.60;;;3.00;;
66342;SDS011;53144;51.524;5.080;2023-06-26T06:25:28;9.25;;;2.67;;
66342;SDS011;53144;51.524;5.080;2023-06-26T06:27:53;6.50;;;2.03;;
66342;SDS011;53144;51.524;5.080;2023-06-26T06:30:19;10.30;;;2.50;;
66342;SDS011;53144;51.524;5.080;2023-06-26T06:32:44;13.48;;;2.90;;
66342;SDS011;53144;51.524;5.080;2023-06-26T06:35:10;11.05;;;2.20;;
66342;SDS011;53144;51.524;5.080;2023-06-26T06:37:36;8.98;;;2.60;;
66342;SDS011;53144;51.524;5.080;2023-06-26T06:40:03;7.20;;;2.08;;
66342;SDS011;53144;51.524;5.080;2023-06-26T06:42:29;8.98;;;2.40;;
66342;SDS011;53144;51.524;5.080;2023-06-26T06:44:55;5.85;;;2.20;;
66342;SDS011;53144;51.524;5.080;2023-06-26T06:47:20;7.30;;;2.25;;
66342;SDS011;53144;51.524;5.080;2023-06-26T06:49:46;5.35;;;2.50;;
66342;SDS011;53144;51.524;5.080;2023-06-26T06:52:11;12.43;;;2.75;;
66342;SDS011;53144;51.524;5.080;2023-06-26T06:54:52;9.68;;;2.45;;
66342;SDS011;53144;51.524;5.080;2023-06-26T06:57:24;6.57;;;2.05;;
66342;SDS011;53144;51.524;5.080;2023-06-26T06:59:50;5.38;;;2.05;;
66342;SDS011;53144;51.524;5.080;2023-06-26T07:02:18;6.03;;;2.45;;
66342;SDS011;53144;51.524;5.080;2023-06-26T07:04:44;5.80;;;1.95;;
66342;SDS011;53144;51.524;5.080;2023-06-26T07:07:09;9.40;;;2.45;;
66342;SDS011;53144;51.524;5.080;2023-06-26T07:09:39;4.72;;;1.70;;
66342;SDS011;53144;51.524;5.080;2023-06-26T07:12:04;5.78;;;1.80;;
66342;SDS011;53144;51.524;5.080;2023-06-26T07:14:30;7.05;;;1.80;;
66342;SDS011;53144;51.524;5.080;2023-06-26T07:16:55;4.32;;;1.83;;
66342;SDS011;53144;51.524;5.080;2023-06-26T07:19:21;6.43;;;2.42;;
66342;SDS011;53144;51.524;5.080;2023-06-26T07:21:46;5.05;;;1.90;;
66342;SDS011;53144;51.524;5.080;2023-06-26T07:24:12;8.32;;;2.30;;
66342;SDS011;53144;51.524;5.080;2023-06-26T07:26:37;8.27;;;2.50;;
66342;SDS011;53144;51.524;5.080;2023-06-26T07:29:03;4.57;;;2.00;;
66342;SDS011;53144;51.524;5.080;2023-06-26T07:31:28;5.75;;;1.80;;
66342;SDS011;53144;51.524;5.080;2023-06-26T07:33:54;6.90;;;1.50;;
66342;SDS011;53144;51.524;5.080;2023-06-26T07:36:19;6.43;;;1.75;;
66342;SDS011;53144;51.524;5.080;2023-06-26T07:38:45;5.32;;;1.75;;
66342;SDS011;53144;51.524;5.080;2023-06-26T07:41:10;8.20;;;1.83;;
66342;SDS011;53144;51.524;5.080;2023-06-26T07:43:36;10.05;;;1.90;;
66342;SDS011;53144;51.524;5.080;2023-06-26T07:46:01;6.68;;;2.00;;
66342;SDS011;53144;51.524;5.080;2023-06-26T07:48:27;8.20;;;2.00;;
66342;SDS011;53144;51.524;5.080;2023-06-26T07:50:52;9.93;;;1.80;;
66342;SDS011;53144;51.524;5.080;2023-06-26T07:53:18;3.90;;;1.33;;
66342;SDS011;53144;51.524;5.080;2023-06-26T07:55:44;5.72;;;1.83;;
66342;SDS011;53144;51.524;5.080;2023-06-26T07:58:09;3.75;;;1.80;;
66342;SDS011;53144;51.524;5.080;2023-06-26T08:00:35;7.38;;;1.95;;
66342;SDS011;53144;51.524;5.080;2023-06-26T08:03:00;4.40;;;1.52;;
66342;SDS011;53144;51.524;5.080;2023-06-26T08:05:26;3.67;;;1.55;;
66342;SDS011;53144;51.524;5.080;2023-06-26T08:07:51;6.57;;;1.58;;
66342;SDS011;53144;51.524;5.080;2023-06-26T08:10:17;4.32;;;1.60;;
66342;SDS011;53144;51.524;5.080;2023-06-26T08:12:42;3.65;;;1.50;;
66342;SDS011;53144;51.524;5.080;2023-06-26T08:15:10;6.82;;;1.70;;
66342;SDS011;53144;51.524;5.080;2023-06-26T08:17:36;6.03;;;1.83;;
66342;SDS011;53144;51.524;5.080;2023-06-26T08:20:02;4.20;;;1.83;;
66342;SDS011;53144;51.524;5.080;2023-06-26T08:22:29;4.00;;;1.58;;
66342;SDS011;53144;51.524;5.080;2023-06-26T08:24:54;4.78;;;1.50;;
66342;SDS011;53144;51.524;5.080;2023-06-26T08:27:19;4.85;;;1.70;;
66342;SDS011;53144;51.524;5.080;2023-06-26T08:29:45;6.07;;;1.92;;
66342;SDS011;53144;51.524;5.080;2023-06-26T08:32:10;9.73;;;1.90;;
66342;SDS011;53144;51.524;5.080;2023-06-26T08:34:36;5.55;;;1.50;;
66342;SDS011;53144;51.524;5.080;2023-06-26T08:37:01;3.88;;;1.63;;
66342;SDS011;53144;51.524;5.080;2023-06-26T08:39:26;7.30;;;1.92;;
66342;SDS011;53144;51.524;5.080;2023-06-26T08:41:52;9.52;;;1.60;;
66342;SDS011;53144;51.524;5.080;2023-06-26T08:44:17;5.15;;;1.40;;
66342;SDS011;53144;51.524;5.080;2023-06-26T08:46:43;8.27;;;1.70;;
66342;SDS011;53144;51.524;5.080;2023-06-26T08:49:13;3.97;;;1.40;;
66342;SDS011;53144;51.524;5.080;2023-06-26T08:51:44;6.28;;;1.98;;
66342;SDS011;53144;51.524;5.080;2023-06-26T08:54:15;4.65;;;1.50;;
66342;SDS011;53144;51.524;5.080;2023-06-26T08:56:44;8.23;;;1.75;;
66342;SDS011;53144;51.524;5.080;2023-06-26T08:59:14;4.45;;;1.58;;
66342;SDS011;53144;51.524;5.080;2023-06-26T09:01:39;4.55;;;1.52;;
66342;SDS011;53144;51.524;5.080;2023-06-26T09:04:06;7.13;;;1.67;;
66342;SDS011;53144;51.524;5.080;2023-06-26T09:06:34;5.80;;;1.73;;
66342;SDS011;53144;51.524;5.080;2023-06-26T09:09:00;4.47;;;1.88;;
66342;SDS011;53144;51.524;5.080;2023-06-26T09:11:25;4.22;;;1.42;;
66342;SDS011;53144;51.524;5.080;2023-06-26T09:13:50;6.32;;;1.60;;
66342;SDS011;53144;51.524;5.080;2023-06-26T09:16:17;5.65;;;1.30;;
66342;SDS011;53144;51.524;5.080;2023-06-26T09:18:42;7.40;;;1.60;;
66342;SDS011;53144;51.524;5.080;2023-06-26T09:21:10;4.40;;;1.77;;
66342;SDS011;53144;51.524;5.080;2023-06-26T09:23:36;3.25;;;1.45;;
66342;SDS011;53144;51.524;5.080;2023-06-26T09:26:05;2.03;;;1.25;;
66342;SDS011;53144;51.524;5.080;2023-06-26T09:28:34;3.65;;;1.38;;
66342;SDS011;53144;51.524;5.080;2023-06-26T09:31:01;6.85;;;1.55;;
66342;SDS011;53144;51.524;5.080;2023-06-26T09:33:32;2.33;;;1.20;;
66342;SDS011;53144;51.524;5.080;2023-06-26T09:35:59;2.65;;;1.20;;
66342;SDS011;53144;51.524;5.080;2023-06-26T09:38:24;4.97;;;1.45;;
66342;SDS011;53144;51.524;5.080;2023-06-26T09:40:51;3.58;;;1.60;;
66342;SDS011;53144;51.524;5.080;2023-06-26T09:43:17;7.78;;;1.60;;
66342;SDS011;53144;51.524;5.080;2023-06-26T09:45:44;1.98;;;1.10;;
66342;SDS011;53144;51.524;5.080;2023-06-26T09:48:09;8.07;;;1.30;;
66342;SDS011;53144;51.524;5.080;2023-06-26T09:50:36;4.93;;;1.45;;
66342;SDS011;53144;51.524;5.080;2023-06-26T09:53:09;2.53;;;1.30;;
66342;SDS011;53144;51.524;5.080;2023-06-26T09:55:36;4.53;;;1.30;;
66342;SDS011;53144;51.524;5.080;2023-06-26T09:58:02;4.47;;;1.20;;
66342;SDS011;53144;51.524;5.080;2023-06-26T10:00:31;3.97;;;1.23;;
66342;SDS011;53144;51.524;5.080;2023-06-26T10:02:58;3.00;;;1.05;;
66342;SDS011;53144;51.524;5.080;2023-06-26T10:05:24;6.68;;;1.40;;
66342;SDS011;53144;51.524;5.080;2023-06-26T10:07:49;4.32;;;1.30;;
66342;SDS011;53144;51.524;5.080;2023-06-26T10:10:15;5.28;;;1.30;;
66342;SDS011;53144;51.524;5.080;2023-06-26T10:12:41;3.40;;;1.30;;
66342;SDS011;53144;51.524;5.080;2023-06-26T10:15:10;3.05;;;1.20;;
66342;SDS011;53144;51.524;5.080;2023-06-26T10:17:38;2.83;;;1.30;;
66342;SDS011;53144;51.524;5.080;2023-06-26T10:20:06;3.17;;;1.33;;
66342;SDS011;53144;51.524;5.080;2023-06-26T10:22:37;4.00;;;1.27;;
66342;SDS011;53144;51.524;5.080;2023-06-26T10:25:07;5.25;;;1.40;;
66342;SDS011;53144;51.524;5.080;2023-06-26T10:27:36;3.72;;;1.27;;
66342;SDS011;53144;51.524;5.080;2023-06-26T10:30:06;2.55;;;1.35;;
66342;SDS011;53144;51.524;5.080;2023-06-26T10:32:34;4.63;;;1.60;;
66342;SDS011;53144;51.524;5.080;2023-06-26T10:35:01;3.67;;;1.42;;
66342;SDS011;53144;51.524;5.080;2023-06-26T10:37:44;5.15;;;1.30;;
66342;SDS011;53144;51.524;5.080;2023-06-26T10:40:11;2.58;;;1.10;;
66342;SDS011;53144;51.524;5.080;2023-06-26T10:42:38;3.28;;;1.30;;
66342;SDS011;53144;51.524;5.080;2023-06-26T10:47:39;1.30;;;1.20;;
66342;SDS011;53144;51.524;5.080;2023-06-26T10:55:55;3.63;;;1.27;;
66342;SDS011;53144;51.524;5.080;2023-06-26T11:03:36;4.05;;;1.52;;
66342;SDS011;53144;51.524;5.080;2023-06-26T11:06:09;4.30;;;1.77;;
66342;SDS011;53144;51.524;5.080;2023-06-26T11:08:48;3.45;;;1.17;;
66342;SDS011;53144;51.524;5.080;2023-06-26T11:11:20;3.85;;;1.15;;
66342;SDS011;53144;51.524;5.080;2023-06-26T11:13:46;2.42;;;1.35;;
66342;SDS011;53144;51.524;5.080;2023-06-26T11:16:13;1.95;;;1.10;;
66342;SDS011;53144;51.524;5.080;2023-06-26T11:18:40;5.70;;;1.45;;
66342;SDS011;53144;51.524;5.080;2023-06-26T11:21:07;4.35;;;1.38;;
66342;SDS011;53144;51.524;5.080;2023-06-26T11:23:34;2.20;;;1.10;;
66342;SDS011;53144;51.524;5.080;2023-06-26T11:26:19;4.30;;;1.40;;
66342;SDS011;53144;51.524;5.080;2023-06-26T11:28:47;2.40;;;1.20;;
66342;SDS011;53144;51.524;5.080;2023-06-26T11:31:29;2.78;;;1.35;;
66342;SDS011;53144;51.524;5.080;2023-06-26T11:33:56;3.10;;;1.40;;
66342;SDS011;53144;51.524;5.080;2023-06-26T11:36:26;3.80;;;1.20;;
66342;SDS011;53144;51.524;5.080;2023-06-26T11:38:56;4.93;;;1.50;;
66342;SDS011;53144;51.524;5.080;2023-06-26T11:41:24;3.65;;;1.60;;
66342;SDS011;53144;51.524;5.080;2023-06-26T11:43:52;5.13;;;1.50;;
66342;SDS011;53144;51.524;5.080;2023-06-26T11:46:19;3.80;;;1.58;;
66342;SDS011;53144;51.524;5.080;2023-06-26T11:48:45;3.28;;;1.55;;
66342;SDS011;53144;51.524;5.080;2023-06-26T11:51:17;4.10;;;1.60;;
66342;SDS011;53144;51.524;5.080;2023-06-26T11:53:44;3.13;;;1.55;;
66342;SDS011;53144;51.524;5.080;2023-06-26T11:56:10;3.13;;;1.30;;
66342;SDS011;53144;51.524;5.080;2023-06-26T12:04:02;2.88;;;1.55;;
66342;SDS011;53144;51.524;5.080;2023-06-26T12:06:29;5.43;;;1.90;;
66342;SDS011;53144;51.524;5.080;2023-06-26T12:08:56;1.83;;;1.38;;
66342;SDS011;53144;51.524;5.080;2023-06-26T12:11:24;3.35;;;1.20;;
66342;SDS011;53144;51.524;5.080;2023-06-26T12:13:50;2.40;;;1.40;;
66342;SDS011;53144;51.524;5.080;2023-06-26T12:16:16;6.43;;;1.40;;
66342;SDS011;53144;51.524;5.080;2023-06-26T12:18:41;2.40;;;1.40;;
66342;SDS011;53144;51.524;5.080;2023-06-26T12:21:07;3.08;;;1.52;;
66342;SDS011;53144;51.524;5.080;2023-06-26T12:23:57;2.00;;;1.27;;
66342;SDS011;53144;51.524;5.080;2023-06-26T12:26:23;5.90;;;1.60;;
66342;SDS011;53144;51.524;5.080;2023-06-26T12:28:51;3.50;;;1.48;;
66342;SDS011;53144;51.524;5.080;2023-06-26T12:31:17;3.60;;;1.50;;
66342;SDS011;53144;51.524;5.080;2023-06-26T12:33:45;2.55;;;1.30;;
66342;SDS011;53144;51.524;5.080;2023-06-26T12:36:11;4.18;;;1.63;;
66342;SDS011;53144;51.524;5.080;2023-06-26T12:38:37;3.63;;;1.40;;
66342;SDS011;53144;51.524;5.080;2023-06-26T12:41:03;4.22;;;1.60;;
66342;SDS011;53144;51.524;5.080;2023-06-26T12:43:28;3.95;;;1.60;;
66342;SDS011;53144;51.524;5.080;2023-06-26T12:45:54;1.73;;;1.00;;
66342;SDS011;53144;51.524;5.080;2023-06-26T12:48:21;3.03;;;1.40;;
66342;SDS011;53144;51.524;5.080;2023-06-26T12:50:46;4.82;;;1.63;;
66342;SDS011;53144;51.524;5.080;2023-06-26T12:53:13;1.40;;;1.20;;
66342;SDS011;53144;51.524;5.080;2023-06-26T12:55:38;4.65;;;1.40;;
66342;SDS011;53144;51.524;5.080;2023-06-26T12:58:04;2.78;;;1.10;;
66342;SDS011;53144;51.524;5.080;2023-06-26T13:00:29;3.35;;;1.45;;
66342;SDS011;53144;51.524;5.080;2023-06-26T13:02:57;2.08;;;1.40;;
66342;SDS011;53144;51.524;5.080;2023-06-26T13:05:23;3.13;;;1.50;;
66342;SDS011;53144;51.524;5.080;2023-06-26T13:07:49;5.38;;;1.77;;
66342;SDS011;53144;51.524;5.080;2023-06-26T13:10:14;3.05;;;1.33;;
66342;SDS011;53144;51.524;5.080;2023-06-26T13:12:40;2.20;;;1.10;;
66342;SDS011;53144;51.524;5.080;2023-06-26T13:15:05;4.28;;;1.40;;
66342;SDS011;53144;51.524;5.080;2023-06-26T13:17:31;1.60;;;1.25;;
66342;SDS011;53144;51.524;5.080;2023-06-26T13:19:56;2.63;;;1.27;;
66342;SDS011;53144;51.524;5.080;2023-06-26T13:22:22;5.35;;;1.73;;
66342;SDS011;53144;51.524;5.080;2023-06-26T13:24:48;5.05;;;1.42;;
66342;SDS011;53144;51.524;5.080;2023-06-26T13:27:13;2.28;;;1.20;;
66342;SDS011;53144;51.524;5.080;2023-06-26T13:29:39;3.72;;;1.75;;
66342;SDS011;53144;51.524;5.080;2023-06-26T13:32:04;3.50;;;1.42;;
66342;SDS011;53144;51.524;5.080;2023-06-26T13:34:30;6.05;;;1.50;;
66342;SDS011;53144;51.524;5.080;2023-06-26T13:36:56;4.53;;;1.55;;
66342;SDS011;53144;51.524;5.080;2023-06-26T13:39:21;4.25;;;1.60;;
66342;SDS011;53144;51.524;5.080;2023-06-26T13:41:47;5.85;;;1.50;;
66342;SDS011;53144;51.524;5.080;2023-06-26T13:44:12;3.45;;;1.30;;
66342;SDS011;53144;51.524;5.080;2023-06-26T13:46:38;4.45;;;1.75;;
66342;SDS011;53144;51.524;5.080;2023-06-26T13:49:03;3.92;;;1.35;;
66342;SDS011;53144;51.524;5.080;2023-06-26T13:51:28;3.80;;;1.65;;
66342;SDS011;53144;51.524;5.080;2023-06-26T13:53:54;4.55;;;1.35;;
66342;SDS011;53144;51.524;5.080;2023-06-26T13:56:20;2.20;;;1.15;;
66342;SDS011;53144;51.524;5.080;2023-06-26T13:58:45;4.63;;;1.50;;
66342;SDS011;53144;51.524;5.080;2023-06-26T14:01:10;4.07;;;1.50;;
66342;SDS011;53144;51.524;5.080;2023-06-26T14:03:36;2.30;;;1.20;;
66342;SDS011;53144;51.524;5.080;2023-06-26T14:06:02;2.17;;;1.25;;
66342;SDS011;53144;51.524;5.080;2023-06-26T14:08:27;4.53;;;1.50;;
66342;SDS011;53144;51.524;5.080;2023-06-26T14:10:53;1.13;;;1.02;;
66342;SDS011;53144;51.524;5.080;2023-06-26T14:13:18;3.80;;;1.70;;
66342;SDS011;53144;51.524;5.080;2023-06-26T14:15:43;3.50;;;1.40;;
66342;SDS011;53144;51.524;5.080;2023-06-26T14:18:09;2.35;;;1.33;;
66342;SDS011;53144;51.524;5.080;2023-06-26T14:20:34;5.70;;;1.40;;
66342;SDS011;53144;51.524;5.080;2023-06-26T14:23:01;2.55;;;1.27;;
66342;SDS011;53144;51.524;5.080;2023-06-26T14:25:27;5.63;;;1.80;;
66342;SDS011;53144;51.524;5.080;2023-06-26T14:27:53;2.58;;;1.02;;
66342;SDS011;53144;51.524;5.080;2023-06-26T14:30:20;3.20;;;1.20;;
66342;SDS011;53144;51.524;5.080;2023-06-26T14:32:45;3.95;;;1.70;;
66342;SDS011;53144;51.524;5.080;2023-06-26T14:35:11;2.92;;;1.20;;
66342;SDS011;53144;51.524;5.080;2023-06-26T14:37:36;2.63;;;1.10;;
66342;SDS011;53144;51.524;5.080;2023-06-26T14:40:04;1.98;;;1.20;;
66342;SDS011;53144;51.524;5.080;2023-06-26T14:42:31;5.20;;;1.33;;
66342;SDS011;53144;51.524;5.080;2023-06-26T14:44:57;5.63;;;1.40;;
66342;SDS011;53144;51.524;5.080;2023-06-26T14:47:22;2.35;;;1.20;;
66342;SDS011;53144;51.524;5.080;2023-06-26T14:49:47;4.72;;;1.20;;
66342;SDS011;53144;51.524;5.080;2023-06-26T14:52:13;4.47;;;1.50;;
66342;SDS011;53144;51.524;5.080;2023-06-26T14:54:38;5.07;;;1.42;;
66342;SDS011;53144;51.524;5.080;2023-06-26T14:57:05;4.00;;;1.48;;
66342;SDS011;53144;51.524;5.080;2023-06-26T14:59:31;2.58;;;1.10;;
66342;SDS011;53144;51.524;5.080;2023-06-26T15:01:56;3.10;;;1.38;;